sensor_id;sensor_type;location;lat;lon;timestamp;P1;durP1;ratioP1;P2;durP2;ratioP2
75441;SDS011;64019;48.312;14.226;2023-02-16T00:00:07;33.20;;;13.43;;
75441;SDS011;64019;48.312;14.226;2023-02-16T00:02:43;35.60;;;13.63;;
75441;SDS011;64019;48.312;14.226;2023-02-16T00:05:21;32.23;;;14.23;;
75441;SDS011;64019;48.312;14.226;2023-02-16T00:07:50;32.00;;;13.43;;
75441;SDS011;64019;48.312;14.226;2023-02-16T00:10:16;40.27;;;15.30;;
75441;SDS011;64019;48.312;14.226;2023-02-16T00:12:42;36.80;;;14.67;;
75441;SDS011;64019;48.312;14.226;2023-02-16T00:15:26;36.17;;;13.87;;
75441;SDS011;64019;48.312;14.226;2023-02-16T00:17:52;36.93;;;13.67;;
75441;SDS011;64019;48.312;14.226;2023-02-16T00:20:19;37.80;;;15.27;;
75441;SDS011;64019;48.312;14.226;2023-02-16T00:22:45;31.67;;;14.23;;
75441;SDS011;64019;48.312;14.226;2023-02-16T00:25:10;38.27;;;14.73;;
75441;SDS011;64019;48.312;14.226;2023-02-16T00:27:36;48.03;;;16.23;;
75441;SDS011;64019;48.312;14.226;2023-02-16T00:30:05;42.47;;;16.30;;
75441;SDS011;64019;48.312;14.226;2023-02-16T00:32:39;36.20;;;15.63;;
75441;SDS011;64019;48.312;14.226;2023-02-16T00:35:12;45.83;;;16.03;;
75441;SDS011;64019;48.312;14.226;2023-02-16T00:37:42;38.97;;;15.20;;
75441;SDS011;64019;48.312;14.226;2023-02-16T00:40:07;43.90;;;16.27;;
75441;SDS011;64019;48.312;14.226;2023-02-16T00:42:34;42.03;;;15.00;;
75441;SDS011;64019;48.312;14.226;2023-02-16T00:45:00;40.63;;;15.63;;
75441;SDS011;64019;48.312;14.226;2023-02-16T00:49:55;43.67;;;16.63;;
75441;SDS011;64019;48.312;14.226;2023-02-16T00:52:31;44.83;;;16.80;;
75441;SDS011;64019;48.312;14.226;2023-02-16T00:54:58;50.60;;;16.53;;
75441;SDS011;64019;48.312;14.226;2023-02-16T00:57:25;52.60;;;16.77;;
75441;SDS011;64019;48.312;14.226;2023-02-16T01:00:05;50.50;;;18.03;;
75441;SDS011;64019;48.312;14.226;2023-02-16T01:02:38;48.23;;;17.03;;
75441;SDS011;64019;48.312;14.226;2023-02-16T01:05:05;49.07;;;17.00;;
75441;SDS011;64019;48.312;14.226;2023-02-16T01:07:31;45.67;;;17.00;;
75441;SDS011;64019;48.312;14.226;2023-02-16T01:10:16;41.73;;;15.77;;
75441;SDS011;64019;48.312;14.226;2023-02-16T01:13:01;40.47;;;15.67;;
75441;SDS011;64019;48.312;14.226;2023-02-16T01:15:27;44.10;;;16.17;;
75441;SDS011;64019;48.312;14.226;2023-02-16T01:17:53;45.10;;;16.10;;
75441;SDS011;64019;48.312;14.226;2023-02-16T01:20:20;42.60;;;16.47;;
75441;SDS011;64019;48.312;14.226;2023-02-16T01:22:47;39.70;;;17.10;;
75441;SDS011;64019;48.312;14.226;2023-02-16T01:25:13;44.07;;;15.10;;
75441;SDS011;64019;48.312;14.226;2023-02-16T01:27:39;45.53;;;16.07;;
75441;SDS011;64019;48.312;14.226;2023-02-16T01:30:06;48.87;;;15.47;;
75441;SDS011;64019;48.312;14.226;2023-02-16T01:32:44;37.30;;;14.03;;
75441;SDS011;64019;48.312;14.226;2023-02-16T01:35:18;36.23;;;13.17;;
75441;SDS011;64019;48.312;14.226;2023-02-16T01:37:52;30.33;;;13.63;;
75441;SDS011;64019;48.312;14.226;2023-02-16T01:46:11;34.77;;;14.43;;
75441;SDS011;64019;48.312;14.226;2023-02-16T01:49:00;26.07;;;12.07;;
75441;SDS011;64019;48.312;14.226;2023-02-16T01:51:27;35.70;;;13.70;;
75441;SDS011;64019;48.312;14.226;2023-02-16T01:59:39;34.83;;;14.57;;
75441;SDS011;64019;48.312;14.226;2023-02-16T02:02:28;34.63;;;12.63;;
75441;SDS011;64019;48.312;14.226;2023-02-16T02:05:15;35.47;;;12.97;;
75441;SDS011;64019;48.312;14.226;2023-02-16T02:08:02;34.27;;;13.20;;
75441;SDS011;64019;48.312;14.226;2023-02-16T02:10:46;31.93;;;12.93;;
75441;SDS011;64019;48.312;14.226;2023-02-16T02:16:18;35.40;;;13.10;;
75441;SDS011;64019;48.312;14.226;2023-02-16T02:18:45;34.13;;;13.50;;
75441;SDS011;64019;48.312;14.226;2023-02-16T02:21:30;37.03;;;14.53;;
75441;SDS011;64019;48.312;14.226;2023-02-16T02:27:24;31.73;;;12.23;;
75441;SDS011;64019;48.312;14.226;2023-02-16T02:33:06;30.53;;;11.70;;
75441;SDS011;64019;48.312;14.226;2023-02-16T02:36:35;35.13;;;12.83;;
75441;SDS011;64019;48.312;14.226;2023-02-16T02:42:24;33.27;;;12.83;;
75441;SDS011;64019;48.312;14.226;2023-02-16T02:47:12;31.47;;;12.53;;
75441;SDS011;64019;48.312;14.226;2023-02-16T02:49:38;33.37;;;13.30;;
75441;SDS011;64019;48.312;14.226;2023-02-16T02:52:04;36.37;;;13.90;;
75441;SDS011;64019;48.312;14.226;2023-02-16T02:54:30;32.37;;;12.57;;
75441;SDS011;64019;48.312;14.226;2023-02-16T02:57:26;33.73;;;12.60;;
75441;SDS011;64019;48.312;14.226;2023-02-16T03:00:26;30.33;;;13.83;;
75441;SDS011;64019;48.312;14.226;2023-02-16T03:03:24;34.43;;;13.50;;
75441;SDS011;64019;48.312;14.226;2023-02-16T03:06:16;41.70;;;14.13;;
75441;SDS011;64019;48.312;14.226;2023-02-16T03:08:52;42.93;;;15.30;;
75441;SDS011;64019;48.312;14.226;2023-02-16T03:11:21;43.03;;;15.10;;
75441;SDS011;64019;48.312;14.226;2023-02-16T03:14:25;37.83;;;13.27;;
75441;SDS011;64019;48.312;14.226;2023-02-16T03:17:00;42.73;;;16.17;;
75441;SDS011;64019;48.312;14.226;2023-02-16T03:19:48;44.53;;;14.77;;
75441;SDS011;64019;48.312;14.226;2023-02-16T03:22:34;40.00;;;14.33;;
75441;SDS011;64019;48.312;14.226;2023-02-16T03:25:23;42.47;;;16.20;;
75441;SDS011;64019;48.312;14.226;2023-02-16T03:28:12;36.80;;;14.93;;
75441;SDS011;64019;48.312;14.226;2023-02-16T03:30:56;36.87;;;14.07;;
75441;SDS011;64019;48.312;14.226;2023-02-16T03:33:24;37.60;;;14.90;;
75441;SDS011;64019;48.312;14.226;2023-02-16T03:35:51;39.60;;;16.00;;
75441;SDS011;64019;48.312;14.226;2023-02-16T03:38:17;31.53;;;13.50;;
75441;SDS011;64019;48.312;14.226;2023-02-16T03:40:44;39.33;;;14.93;;
75441;SDS011;64019;48.312;14.226;2023-02-16T03:43:14;41.93;;;15.33;;
75441;SDS011;64019;48.312;14.226;2023-02-16T03:45:40;40.53;;;15.07;;
75441;SDS011;64019;48.312;14.226;2023-02-16T03:48:08;41.93;;;15.07;;
75441;SDS011;64019;48.312;14.226;2023-02-16T03:50:35;39.50;;;15.00;;
75441;SDS011;64019;48.312;14.226;2023-02-16T03:53:01;40.20;;;15.50;;
75441;SDS011;64019;48.312;14.226;2023-02-16T03:58:00;42.87;;;15.10;;
75441;SDS011;64019;48.312;14.226;2023-02-16T04:00:25;39.33;;;14.63;;
75441;SDS011;64019;48.312;14.226;2023-02-16T04:02:51;36.67;;;14.63;;
75441;SDS011;64019;48.312;14.226;2023-02-16T04:05:17;39.80;;;15.47;;
75441;SDS011;64019;48.312;14.226;2023-02-16T04:07:43;45.10;;;16.00;;
75441;SDS011;64019;48.312;14.226;2023-02-16T04:10:08;41.73;;;14.63;;
75441;SDS011;64019;48.312;14.226;2023-02-16T04:12:34;40.53;;;16.40;;
75441;SDS011;64019;48.312;14.226;2023-02-16T04:15:00;49.93;;;16.77;;
75441;SDS011;64019;48.312;14.226;2023-02-16T04:17:26;45.93;;;17.47;;
75441;SDS011;64019;48.312;14.226;2023-02-16T04:19:52;45.80;;;16.50;;
75441;SDS011;64019;48.312;14.226;2023-02-16T04:22:17;49.93;;;16.30;;
75441;SDS011;64019;48.312;14.226;2023-02-16T04:24:43;40.37;;;15.83;;
75441;SDS011;64019;48.312;14.226;2023-02-16T04:27:08;52.90;;;16.23;;
75441;SDS011;64019;48.312;14.226;2023-02-16T04:29:34;50.27;;;16.07;;
75441;SDS011;64019;48.312;14.226;2023-02-16T04:32:00;40.60;;;15.03;;
75441;SDS011;64019;48.312;14.226;2023-02-16T04:34:25;44.23;;;15.83;;
75441;SDS011;64019;48.312;14.226;2023-02-16T04:36:51;40.97;;;15.60;;
75441;SDS011;64019;48.312;14.226;2023-02-16T04:39:16;42.00;;;14.43;;
75441;SDS011;64019;48.312;14.226;2023-02-16T04:41:42;47.70;;;15.57;;
75441;SDS011;64019;48.312;14.226;2023-02-16T04:44:08;48.40;;;15.33;;
75441;SDS011;64019;48.312;14.226;2023-02-16T04:46:33;48.27;;;15.83;;
75441;SDS011;64019;48.312;14.226;2023-02-16T04:48:59;36.90;;;15.03;;
75441;SDS011;64019;48.312;14.226;2023-02-16T04:51:24;44.20;;;14.43;;
75441;SDS011;64019;48.312;14.226;2023-02-16T04:53:50;42.93;;;15.70;;
75441;SDS011;64019;48.312;14.226;2023-02-16T04:56:16;45.30;;;15.90;;
75441;SDS011;64019;48.312;14.226;2023-02-16T04:58:41;37.17;;;16.00;;
75441;SDS011;64019;48.312;14.226;2023-02-16T05:01:07;44.57;;;16.10;;
75441;SDS011;64019;48.312;14.226;2023-02-16T05:03:33;43.27;;;16.23;;
75441;SDS011;64019;48.312;14.226;2023-02-16T05:05:59;35.97;;;14.90;;
75441;SDS011;64019;48.312;14.226;2023-02-16T05:08:25;43.30;;;15.20;;
75441;SDS011;64019;48.312;14.226;2023-02-16T05:10:50;38.17;;;15.40;;
75441;SDS011;64019;48.312;14.226;2023-02-16T05:13:34;39.10;;;15.00;;
75441;SDS011;64019;48.312;14.226;2023-02-16T05:16:20;39.50;;;13.83;;
75441;SDS011;64019;48.312;14.226;2023-02-16T05:18:46;39.30;;;14.97;;
75441;SDS011;64019;48.312;14.226;2023-02-16T05:21:12;36.27;;;14.30;;
75441;SDS011;64019;48.312;14.226;2023-02-16T05:23:59;41.67;;;14.63;;
75441;SDS011;64019;48.312;14.226;2023-02-16T05:26:30;42.17;;;15.37;;
75441;SDS011;64019;48.312;14.226;2023-02-16T05:28:56;31.87;;;13.80;;
75441;SDS011;64019;48.312;14.226;2023-02-16T05:31:23;40.03;;;15.47;;
75441;SDS011;64019;48.312;14.226;2023-02-16T05:33:50;39.33;;;14.40;;
75441;SDS011;64019;48.312;14.226;2023-02-16T05:36:15;43.20;;;15.77;;
75441;SDS011;64019;48.312;14.226;2023-02-16T05:38:41;41.60;;;15.77;;
75441;SDS011;64019;48.312;14.226;2023-02-16T05:41:07;42.03;;;14.57;;
75441;SDS011;64019;48.312;14.226;2023-02-16T05:43:33;36.40;;;14.73;;
75441;SDS011;64019;48.312;14.226;2023-02-16T05:45:59;39.03;;;15.13;;
75441;SDS011;64019;48.312;14.226;2023-02-16T05:48:24;37.50;;;14.27;;
75441;SDS011;64019;48.312;14.226;2023-02-16T05:50:52;41.63;;;15.73;;
75441;SDS011;64019;48.312;14.226;2023-02-16T05:53:18;40.23;;;13.97;;
75441;SDS011;64019;48.312;14.226;2023-02-16T05:55:44;36.27;;;13.93;;
75441;SDS011;64019;48.312;14.226;2023-02-16T05:58:10;34.50;;;12.27;;
75441;SDS011;64019;48.312;14.226;2023-02-16T06:00:35;46.03;;;14.90;;
75441;SDS011;64019;48.312;14.226;2023-02-16T06:03:02;34.67;;;14.43;;
75441;SDS011;64019;48.312;14.226;2023-02-16T06:05:28;41.93;;;14.77;;
75441;SDS011;64019;48.312;14.226;2023-02-16T06:07:54;37.70;;;15.33;;
75441;SDS011;64019;48.312;14.226;2023-02-16T06:10:20;35.73;;;14.50;;
75441;SDS011;64019;48.312;14.226;2023-02-16T06:12:45;35.10;;;13.77;;
75441;SDS011;64019;48.312;14.226;2023-02-16T06:15:11;42.20;;;14.40;;
75441;SDS011;64019;48.312;14.226;2023-02-16T06:17:37;38.57;;;14.17;;
75441;SDS011;64019;48.312;14.226;2023-02-16T06:20:03;33.80;;;13.93;;
75441;SDS011;64019;48.312;14.226;2023-02-16T06:22:29;33.93;;;14.03;;
75441;SDS011;64019;48.312;14.226;2023-02-16T06:24:55;43.30;;;14.97;;
75441;SDS011;64019;48.312;14.226;2023-02-16T06:27:20;33.37;;;14.97;;
75441;SDS011;64019;48.312;14.226;2023-02-16T06:29:46;34.00;;;14.67;;
75441;SDS011;64019;48.312;14.226;2023-02-16T06:32:11;36.10;;;13.60;;
75441;SDS011;64019;48.312;14.226;2023-02-16T06:34:37;34.00;;;13.70;;
75441;SDS011;64019;48.312;14.226;2023-02-16T06:37:03;33.43;;;13.90;;
75441;SDS011;64019;48.312;14.226;2023-02-16T06:39:28;34.70;;;13.63;;
75441;SDS011;64019;48.312;14.226;2023-02-16T06:41:54;33.43;;;13.63;;
75441;SDS011;64019;48.312;14.226;2023-02-16T06:44:19;34.93;;;12.57;;
75441;SDS011;64019;48.312;14.226;2023-02-16T06:46:45;36.57;;;12.90;;
75441;SDS011;64019;48.312;14.226;2023-02-16T06:49:16;32.30;;;13.77;;
75441;SDS011;64019;48.312;14.226;2023-02-16T06:51:43;32.80;;;13.53;;
75441;SDS011;64019;48.312;14.226;2023-02-16T06:54:09;37.13;;;13.53;;
75441;SDS011;64019;48.312;14.226;2023-02-16T06:56:35;39.47;;;13.50;;
75441;SDS011;64019;48.312;14.226;2023-02-16T06:59:01;34.83;;;12.70;;
75441;SDS011;64019;48.312;14.226;2023-02-16T07:01:27;35.47;;;14.30;;
75441;SDS011;64019;48.312;14.226;2023-02-16T07:03:54;36.03;;;13.83;;
75441;SDS011;64019;48.312;14.226;2023-02-16T07:06:21;36.43;;;13.70;;
75441;SDS011;64019;48.312;14.226;2023-02-16T07:08:49;40.27;;;13.77;;
75441;SDS011;64019;48.312;14.226;2023-02-16T07:11:15;37.83;;;13.70;;
75441;SDS011;64019;48.312;14.226;2023-02-16T07:13:41;33.80;;;14.20;;
75441;SDS011;64019;48.312;14.226;2023-02-16T07:16:07;36.80;;;14.47;;
75441;SDS011;64019;48.312;14.226;2023-02-16T07:18:33;35.97;;;14.50;;
75441;SDS011;64019;48.312;14.226;2023-02-16T07:21:00;36.83;;;13.50;;
75441;SDS011;64019;48.312;14.226;2023-02-16T07:23:26;31.90;;;13.27;;
75441;SDS011;64019;48.312;14.226;2023-02-16T07:25:52;37.60;;;14.60;;
75441;SDS011;64019;48.312;14.226;2023-02-16T07:28:17;38.57;;;15.23;;
75441;SDS011;64019;48.312;14.226;2023-02-16T07:30:43;51.07;;;16.63;;
75441;SDS011;64019;48.312;14.226;2023-02-16T07:33:09;46.77;;;15.17;;
75441;SDS011;64019;48.312;14.226;2023-02-16T07:35:35;43.93;;;15.43;;
75441;SDS011;64019;48.312;14.226;2023-02-16T07:38:01;46.90;;;16.13;;
75441;SDS011;64019;48.312;14.226;2023-02-16T07:40:28;36.77;;;15.57;;
75441;SDS011;64019;48.312;14.226;2023-02-16T07:42:54;45.90;;;15.57;;
75441;SDS011;64019;48.312;14.226;2023-02-16T07:45:22;44.20;;;15.87;;
75441;SDS011;64019;48.312;14.226;2023-02-16T07:47:48;45.80;;;16.40;;
75441;SDS011;64019;48.312;14.226;2023-02-16T07:50:14;44.17;;;16.17;;
75441;SDS011;64019;48.312;14.226;2023-02-16T07:52:40;60.70;;;15.73;;
75441;SDS011;64019;48.312;14.226;2023-02-16T07:55:06;44.13;;;15.43;;
75441;SDS011;64019;48.312;14.226;2023-02-16T07:57:32;39.67;;;15.40;;
75441;SDS011;64019;48.312;14.226;2023-02-16T07:59:58;41.17;;;16.47;;
75441;SDS011;64019;48.312;14.226;2023-02-16T08:02:23;45.27;;;16.33;;
75441;SDS011;64019;48.312;14.226;2023-02-16T08:04:51;45.53;;;15.57;;
75441;SDS011;64019;48.312;14.226;2023-02-16T08:07:18;49.57;;;16.80;;
75441;SDS011;64019;48.312;14.226;2023-02-16T08:09:44;39.53;;;15.23;;
75441;SDS011;64019;48.312;14.226;2023-02-16T08:12:10;40.43;;;15.90;;
75441;SDS011;64019;48.312;14.226;2023-02-16T08:14:38;46.43;;;15.30;;
75441;SDS011;64019;48.312;14.226;2023-02-16T08:17:04;40.50;;;16.00;;
75441;SDS011;64019;48.312;14.226;2023-02-16T08:19:31;41.23;;;16.70;;
75441;SDS011;64019;48.312;14.226;2023-02-16T08:21:58;49.87;;;16.00;;
75441;SDS011;64019;48.312;14.226;2023-02-16T08:24:26;41.77;;;16.67;;
75441;SDS011;64019;48.312;14.226;2023-02-16T08:26:52;44.63;;;17.80;;
75441;SDS011;64019;48.312;14.226;2023-02-16T08:29:20;37.23;;;14.60;;
75441;SDS011;64019;48.312;14.226;2023-02-16T08:31:47;44.00;;;15.10;;
75441;SDS011;64019;48.312;14.226;2023-02-16T08:34:14;43.73;;;16.73;;
75441;SDS011;64019;48.312;14.226;2023-02-16T08:36:41;44.17;;;16.77;;
75441;SDS011;64019;48.312;14.226;2023-02-16T08:39:13;47.50;;;15.47;;
75441;SDS011;64019;48.312;14.226;2023-02-16T08:41:40;46.67;;;16.20;;
75441;SDS011;64019;48.312;14.226;2023-02-16T08:44:07;44.23;;;16.23;;
75441;SDS011;64019;48.312;14.226;2023-02-16T08:46:35;44.13;;;17.10;;
75441;SDS011;64019;48.312;14.226;2023-02-16T08:49:04;49.37;;;16.10;;
75441;SDS011;64019;48.312;14.226;2023-02-16T08:51:32;44.50;;;16.07;;
75441;SDS011;64019;48.312;14.226;2023-02-16T08:54:03;51.00;;;17.13;;
75441;SDS011;64019;48.312;14.226;2023-02-16T08:56:31;36.60;;;15.30;;
75441;SDS011;64019;48.312;14.226;2023-02-16T08:58:59;50.37;;;15.57;;
75441;SDS011;64019;48.312;14.226;2023-02-16T09:01:25;45.53;;;17.57;;
75441;SDS011;64019;48.312;14.226;2023-02-16T09:03:51;42.43;;;16.13;;
75441;SDS011;64019;48.312;14.226;2023-02-16T09:06:18;36.60;;;14.37;;
75441;SDS011;64019;48.312;14.226;2023-02-16T09:08:54;38.80;;;15.73;;
75441;SDS011;64019;48.312;14.226;2023-02-16T09:11:21;34.87;;;14.23;;
75441;SDS011;64019;48.312;14.226;2023-02-16T09:13:48;42.03;;;15.67;;
75441;SDS011;64019;48.312;14.226;2023-02-16T09:16:18;41.57;;;15.30;;
75441;SDS011;64019;48.312;14.226;2023-02-16T09:18:46;41.43;;;15.53;;
75441;SDS011;64019;48.312;14.226;2023-02-16T09:21:17;37.37;;;16.03;;
75441;SDS011;64019;48.312;14.226;2023-02-16T09:23:45;40.87;;;16.17;;
75441;SDS011;64019;48.312;14.226;2023-02-16T09:26:16;41.97;;;16.03;;
75441;SDS011;64019;48.312;14.226;2023-02-16T09:28:43;42.63;;;14.33;;
75441;SDS011;64019;48.312;14.226;2023-02-16T09:31:10;35.77;;;15.20;;
75441;SDS011;64019;48.312;14.226;2023-02-16T09:33:39;39.70;;;16.03;;
75441;SDS011;64019;48.312;14.226;2023-02-16T09:36:06;34.70;;;14.57;;
75441;SDS011;64019;48.312;14.226;2023-02-16T09:38:34;39.63;;;14.67;;
75441;SDS011;64019;48.312;14.226;2023-02-16T09:41:05;39.80;;;15.73;;
75441;SDS011;64019;48.312;14.226;2023-02-16T09:43:50;44.30;;;15.87;;
75441;SDS011;64019;48.312;14.226;2023-02-16T09:46:19;43.47;;;17.20;;
75441;SDS011;64019;48.312;14.226;2023-02-16T09:48:48;42.33;;;15.07;;
75441;SDS011;64019;48.312;14.226;2023-02-16T09:51:16;44.17;;;16.10;;
75441;SDS011;64019;48.312;14.226;2023-02-16T09:53:46;42.30;;;16.87;;
75441;SDS011;64019;48.312;14.226;2023-02-16T10:01:30;46.60;;;16.60;;
75441;SDS011;64019;48.312;14.226;2023-02-16T10:06:56;37.50;;;16.33;;
75441;SDS011;64019;48.312;14.226;2023-02-16T10:09:50;38.67;;;15.27;;
75441;SDS011;64019;48.312;14.226;2023-02-16T10:12:20;42.77;;;16.53;;
75441;SDS011;64019;48.312;14.226;2023-02-16T10:15:07;43.87;;;15.57;;
75441;SDS011;64019;48.312;14.226;2023-02-16T10:17:45;40.67;;;15.50;;
75441;SDS011;64019;48.312;14.226;2023-02-16T10:20:34;44.97;;;16.53;;
75441;SDS011;64019;48.312;14.226;2023-02-16T10:28:42;42.63;;;17.33;;
75441;SDS011;64019;48.312;14.226;2023-02-16T10:42:36;39.90;;;16.60;;
75441;SDS011;64019;48.312;14.226;2023-02-16T10:47:57;44.87;;;15.93;;
75441;SDS011;64019;48.312;14.226;2023-02-16T10:50:38;40.63;;;17.03;;
75441;SDS011;64019;48.312;14.226;2023-02-16T10:53:17;35.70;;;15.83;;
75441;SDS011;64019;48.312;14.226;2023-02-16T10:55:48;38.17;;;16.70;;
75441;SDS011;64019;48.312;14.226;2023-02-16T10:58:23;51.03;;;18.80;;
75441;SDS011;64019;48.312;14.226;2023-02-16T11:03:32;41.87;;;17.63;;
75441;SDS011;64019;48.312;14.226;2023-02-16T11:06:21;41.50;;;17.17;;
75441;SDS011;64019;48.312;14.226;2023-02-16T11:08:54;43.43;;;16.90;;
75441;SDS011;64019;48.312;14.226;2023-02-16T11:11:28;44.97;;;16.87;;
75441;SDS011;64019;48.312;14.226;2023-02-16T11:14:06;46.77;;;18.40;;
75441;SDS011;64019;48.312;14.226;2023-02-16T11:16:43;43.63;;;18.43;;
75441;SDS011;64019;48.312;14.226;2023-02-16T11:19:20;38.30;;;17.40;;
75441;SDS011;64019;48.312;14.226;2023-02-16T11:21:50;54.03;;;18.13;;
75441;SDS011;64019;48.312;14.226;2023-02-16T11:29:42;43.87;;;17.77;;
75441;SDS011;64019;48.312;14.226;2023-02-16T11:32:09;41.57;;;18.47;;
75441;SDS011;64019;48.312;14.226;2023-02-16T11:34:38;48.40;;;19.17;;
75441;SDS011;64019;48.312;14.226;2023-02-16T11:37:26;48.87;;;18.83;;
75441;SDS011;64019;48.312;14.226;2023-02-16T11:44:54;48.67;;;19.40;;
75441;SDS011;64019;48.312;14.226;2023-02-16T11:49:50;45.77;;;19.03;;
75441;SDS011;64019;48.312;14.226;2023-02-16T11:53:12;48.60;;;19.00;;
75441;SDS011;64019;48.312;14.226;2023-02-16T11:55:48;49.60;;;18.97;;
75441;SDS011;64019;48.312;14.226;2023-02-16T11:58:22;45.87;;;19.00;;
75441;SDS011;64019;48.312;14.226;2023-02-16T12:17:20;43.70;;;18.03;;
75441;SDS011;64019;48.312;14.226;2023-02-16T12:19:52;46.10;;;18.50;;
75441;SDS011;64019;48.312;14.226;2023-02-16T12:22:38;45.80;;;17.47;;
75441;SDS011;64019;48.312;14.226;2023-02-16T12:25:20;46.97;;;18.23;;
75441;SDS011;64019;48.312;14.226;2023-02-16T12:28:14;54.53;;;19.67;;
75441;SDS011;64019;48.312;14.226;2023-02-16T12:33:33;49.07;;;20.27;;
75441;SDS011;64019;48.312;14.226;2023-02-16T12:36:37;45.40;;;19.67;;
75441;SDS011;64019;48.312;14.226;2023-02-16T12:39:28;54.40;;;20.10;;
75441;SDS011;64019;48.312;14.226;2023-02-16T12:42:07;49.77;;;19.47;;
75441;SDS011;64019;48.312;14.226;2023-02-16T12:44:46;46.57;;;18.00;;
75441;SDS011;64019;48.312;14.226;2023-02-16T12:47:23;42.30;;;17.23;;
75441;SDS011;64019;48.312;14.226;2023-02-16T12:57:53;42.13;;;19.50;;
75441;SDS011;64019;48.312;14.226;2023-02-16T13:00:44;47.73;;;18.43;;
75441;SDS011;64019;48.312;14.226;2023-02-16T13:14:15;52.70;;;19.77;;
75441;SDS011;64019;48.312;14.226;2023-02-16T13:16:47;51.70;;;21.60;;
75441;SDS011;64019;48.312;14.226;2023-02-16T13:19:17;43.00;;;19.53;;
75441;SDS011;64019;48.312;14.226;2023-02-16T13:21:53;46.97;;;19.10;;
75441;SDS011;64019;48.312;14.226;2023-02-16T13:24:58;48.20;;;20.13;;
75441;SDS011;64019;48.312;14.226;2023-02-16T13:28:08;41.37;;;17.73;;
75441;SDS011;64019;48.312;14.226;2023-02-16T13:44:41;43.20;;;19.60;;
75441;SDS011;64019;48.312;14.226;2023-02-16T13:47:13;49.23;;;20.23;;
75441;SDS011;64019;48.312;14.226;2023-02-16T13:49:42;53.00;;;21.37;;
75441;SDS011;64019;48.312;14.226;2023-02-16T13:52:53;54.30;;;20.30;;
75441;SDS011;64019;48.312;14.226;2023-02-16T13:54:55;45.80;;;18.67;;
75441;SDS011;64019;48.312;14.226;2023-02-16T14:00:31;48.10;;;20.23;;
75441;SDS011;64019;48.312;14.226;2023-02-16T14:05:45;41.97;;;19.67;;
75441;SDS011;64019;48.312;14.226;2023-02-16T14:15:51;44.57;;;19.43;;
75441;SDS011;64019;48.312;14.226;2023-02-16T14:21:24;47.07;;;20.37;;
75441;SDS011;64019;48.312;14.226;2023-02-16T14:23:57;41.97;;;18.47;;
75441;SDS011;64019;48.312;14.226;2023-02-16T14:26:24;45.63;;;20.13;;
75441;SDS011;64019;48.312;14.226;2023-02-16T14:31:41;47.93;;;22.07;;
75441;SDS011;64019;48.312;14.226;2023-02-16T14:34:19;44.93;;;20.00;;
75441;SDS011;64019;48.312;14.226;2023-02-16T14:39:35;43.67;;;19.33;;
75441;SDS011;64019;48.312;14.226;2023-02-16T14:42:06;45.30;;;20.50;;
75441;SDS011;64019;48.312;14.226;2023-02-16T14:44:59;47.23;;;19.97;;
75441;SDS011;64019;48.312;14.226;2023-02-16T14:47:32;43.37;;;19.37;;
75441;SDS011;64019;48.312;14.226;2023-02-16T14:55:44;48.63;;;21.00;;
75441;SDS011;64019;48.312;14.226;2023-02-16T15:01:16;44.33;;;20.73;;
75441;SDS011;64019;48.312;14.226;2023-02-16T15:03:50;46.03;;;20.10;;
75441;SDS011;64019;48.312;14.226;2023-02-16T15:06:26;48.10;;;21.47;;
75441;SDS011;64019;48.312;14.226;2023-02-16T15:08:58;44.00;;;19.53;;
75441;SDS011;64019;48.312;14.226;2023-02-16T15:11:34;41.47;;;19.30;;
75441;SDS011;64019;48.312;14.226;2023-02-16T15:14:25;43.13;;;19.50;;
75441;SDS011;64019;48.312;14.226;2023-02-16T15:16:54;48.77;;;19.80;;
75441;SDS011;64019;48.312;14.226;2023-02-16T15:19:25;50.27;;;19.00;;
75441;SDS011;64019;48.312;14.226;2023-02-16T15:24:55;46.03;;;20.70;;
75441;SDS011;64019;48.312;14.226;2023-02-16T15:27:26;42.90;;;18.73;;
75441;SDS011;64019;48.312;14.226;2023-02-16T15:30:18;42.90;;;19.97;;
75441;SDS011;64019;48.312;14.226;2023-02-16T15:32:58;43.60;;;18.97;;
75441;SDS011;64019;48.312;14.226;2023-02-16T15:35:37;42.87;;;18.97;;
75441;SDS011;64019;48.312;14.226;2023-02-16T15:38:07;41.90;;;19.30;;
75441;SDS011;64019;48.312;14.226;2023-02-16T15:40:37;42.20;;;18.70;;
75441;SDS011;64019;48.312;14.226;2023-02-16T15:45:47;43.67;;;20.13;;
75441;SDS011;64019;48.312;14.226;2023-02-16T15:48:20;41.00;;;18.33;;
75441;SDS011;64019;48.312;14.226;2023-02-16T15:50:47;40.80;;;18.73;;
75441;SDS011;64019;48.312;14.226;2023-02-16T15:53:14;42.37;;;18.70;;
75441;SDS011;64019;48.312;14.226;2023-02-16T15:59:11;42.20;;;18.50;;
75441;SDS011;64019;48.312;14.226;2023-02-16T16:02:00;36.87;;;19.07;;
75441;SDS011;64019;48.312;14.226;2023-02-16T16:04:26;43.67;;;19.17;;
75441;SDS011;64019;48.312;14.226;2023-02-16T16:06:54;44.07;;;18.90;;
75441;SDS011;64019;48.312;14.226;2023-02-16T16:09:24;38.90;;;17.60;;
75441;SDS011;64019;48.312;14.226;2023-02-16T16:11:53;39.60;;;17.47;;
75441;SDS011;64019;48.312;14.226;2023-02-16T16:14:21;38.40;;;17.73;;
75441;SDS011;64019;48.312;14.226;2023-02-16T16:16:48;41.87;;;18.13;;
75441;SDS011;64019;48.312;14.226;2023-02-16T16:19:18;36.93;;;18.60;;
75441;SDS011;64019;48.312;14.226;2023-02-16T16:21:54;44.40;;;19.13;;
75441;SDS011;64019;48.312;14.226;2023-02-16T16:27:25;41.20;;;19.87;;
75441;SDS011;64019;48.312;14.226;2023-02-16T16:30:10;39.93;;;18.83;;
75441;SDS011;64019;48.312;14.226;2023-02-16T16:33:01;43.37;;;18.00;;
75441;SDS011;64019;48.312;14.226;2023-02-16T16:35:39;42.43;;;17.27;;
75441;SDS011;64019;48.312;14.226;2023-02-16T16:41:05;32.57;;;17.20;;
75441;SDS011;64019;48.312;14.226;2023-02-16T16:43:56;53.77;;;23.73;;
75441;SDS011;64019;48.312;14.226;2023-02-16T16:48:49;40.80;;;19.80;;
75441;SDS011;64019;48.312;14.226;2023-02-16T16:53:59;39.77;;;18.50;;
75441;SDS011;64019;48.312;14.226;2023-02-16T16:56:28;40.07;;;18.23;;
75441;SDS011;64019;48.312;14.226;2023-02-16T16:58:56;32.80;;;16.93;;
75441;SDS011;64019;48.312;14.226;2023-02-16T17:01:23;44.20;;;17.67;;
75441;SDS011;64019;48.312;14.226;2023-02-16T17:03:50;35.90;;;16.27;;
75441;SDS011;64019;48.312;14.226;2023-02-16T17:06:17;33.97;;;16.77;;
75441;SDS011;64019;48.312;14.226;2023-02-16T17:08:44;33.47;;;17.43;;
75441;SDS011;64019;48.312;14.226;2023-02-16T17:11:32;34.87;;;16.53;;
75441;SDS011;64019;48.312;14.226;2023-02-16T17:14:08;42.47;;;19.07;;
75441;SDS011;64019;48.312;14.226;2023-02-16T17:16:40;37.30;;;16.77;;
75441;SDS011;64019;48.312;14.226;2023-02-16T17:19:11;33.63;;;16.73;;
75441;SDS011;64019;48.312;14.226;2023-02-16T17:21:38;42.20;;;18.77;;
75441;SDS011;64019;48.312;14.226;2023-02-16T17:24:03;47.13;;;23.53;;
75441;SDS011;64019;48.312;14.226;2023-02-16T17:26:31;44.13;;;23.10;;
75441;SDS011;64019;48.312;14.226;2023-02-16T17:28:57;42.80;;;21.77;;
75441;SDS011;64019;48.312;14.226;2023-02-16T17:31:23;43.83;;;19.97;;